sensor_id;sensor_type;location;lat;lon;timestamp;P1;durP1;ratioP1;P2;durP2;ratioP2
46439;SDS011;32138;50.966;6.968;2024-03-22T00:00:58;31.85;;;21.05;;
46439;SDS011;32138;50.966;6.968;2024-03-22T00:02:29;29.50;;;20.20;;
46439;SDS011;32138;50.966;6.968;2024-03-22T00:03:59;31.80;;;20.35;;
46439;SDS011;32138;50.966;6.968;2024-03-22T00:05:30;35.92;;;22.10;;
46439;SDS011;32138;50.966;6.968;2024-03-22T00:07:01;30.73;;;20.92;;
46439;SDS011;32138;50.966;6.968;2024-03-22T00:08:32;28.33;;;20.10;;
46439;SDS011;32138;50.966;6.968;2024-03-22T00:10:04;29.42;;;20.30;;
46439;SDS011;32138;50.966;6.968;2024-03-22T00:11:36;32.72;;;22.48;;
46439;SDS011;32138;50.966;6.968;2024-03-22T00:13:09;30.77;;;21.40;;
46439;SDS011;32138;50.966;6.968;2024-03-22T00:14:39;30.63;;;20.35;;
46439;SDS011;32138;50.966;6.968;2024-03-22T00:16:10;31.00;;;21.60;;
46439;SDS011;32138;50.966;6.968;2024-03-22T00:17:42;30.45;;;21.08;;
46439;SDS011;32138;50.966;6.968;2024-03-22T00:19:14;31.45;;;21.83;;
46439;SDS011;32138;50.966;6.968;2024-03-22T00:20:45;29.65;;;20.10;;
46439;SDS011;32138;50.966;6.968;2024-03-22T00:22:16;28.40;;;20.30;;
46439;SDS011;32138;50.966;6.968;2024-03-22T00:23:46;26.70;;;20.30;;
46439;SDS011;32138;50.966;6.968;2024-03-22T00:25:17;28.73;;;19.35;;
46439;SDS011;32138;50.966;6.968;2024-03-22T00:26:48;30.88;;;21.60;;
46439;SDS011;32138;50.966;6.968;2024-03-22T00:28:18;28.13;;;20.92;;
46439;SDS011;32138;50.966;6.968;2024-03-22T00:29:49;31.58;;;21.27;;
46439;SDS011;32138;50.966;6.968;2024-03-22T00:31:20;29.30;;;20.35;;
46439;SDS011;32138;50.966;6.968;2024-03-22T00:32:51;28.58;;;20.83;;
46439;SDS011;32138;50.966;6.968;2024-03-22T00:34:21;28.42;;;20.92;;
46439;SDS011;32138;50.966;6.968;2024-03-22T00:35:52;28.42;;;21.88;;
46439;SDS011;32138;50.966;6.968;2024-03-22T00:37:23;28.40;;;19.98;;
46439;SDS011;32138;50.966;6.968;2024-03-22T00:38:53;28.02;;;20.00;;
46439;SDS011;32138;50.966;6.968;2024-03-22T00:40:24;26.60;;;20.65;;
46439;SDS011;32138;50.966;6.968;2024-03-22T00:41:55;26.75;;;19.92;;
46439;SDS011;32138;50.966;6.968;2024-03-22T00:43:25;29.60;;;20.63;;
46439;SDS011;32138;50.966;6.968;2024-03-22T00:44:56;32.60;;;20.42;;
46439;SDS011;32138;50.966;6.968;2024-03-22T00:46:28;26.02;;;20.42;;
46439;SDS011;32138;50.966;6.968;2024-03-22T00:47:59;28.17;;;19.98;;
46439;SDS011;32138;50.966;6.968;2024-03-22T00:49:29;25.55;;;19.45;;
46439;SDS011;32138;50.966;6.968;2024-03-22T00:51:00;28.40;;;20.23;;
46439;SDS011;32138;50.966;6.968;2024-03-22T00:52:31;24.38;;;18.88;;
46439;SDS011;32138;50.966;6.968;2024-03-22T00:54:02;27.38;;;20.15;;
46439;SDS011;32138;50.966;6.968;2024-03-22T00:55:32;25.23;;;19.63;;
46439;SDS011;32138;50.966;6.968;2024-03-22T00:57:03;26.85;;;19.25;;
46439;SDS011;32138;50.966;6.968;2024-03-22T00:58:34;26.35;;;19.55;;
46439;SDS011;32138;50.966;6.968;2024-03-22T01:00:05;28.77;;;20.80;;
46439;SDS011;32138;50.966;6.968;2024-03-22T01:01:37;31.10;;;20.70;;
46439;SDS011;32138;50.966;6.968;2024-03-22T01:03:08;24.85;;;18.73;;
46439;SDS011;32138;50.966;6.968;2024-03-22T01:04:39;23.75;;;18.05;;
46439;SDS011;32138;50.966;6.968;2024-03-22T01:06:10;26.75;;;20.83;;
46439;SDS011;32138;50.966;6.968;2024-03-22T01:07:41;25.98;;;19.80;;
46439;SDS011;32138;50.966;6.968;2024-03-22T01:09:11;26.35;;;18.92;;
46439;SDS011;32138;50.966;6.968;2024-03-22T01:10:42;24.98;;;19.77;;
46439;SDS011;32138;50.966;6.968;2024-03-22T01:12:13;24.70;;;18.70;;
46439;SDS011;32138;50.966;6.968;2024-03-22T01:13:44;24.75;;;18.02;;
46439;SDS011;32138;50.966;6.968;2024-03-22T01:15:14;24.05;;;18.25;;
46439;SDS011;32138;50.966;6.968;2024-03-22T01:16:45;26.98;;;19.00;;
46439;SDS011;32138;50.966;6.968;2024-03-22T01:18:16;24.20;;;19.05;;
46439;SDS011;32138;50.966;6.968;2024-03-22T01:19:47;24.85;;;19.00;;
46439;SDS011;32138;50.966;6.968;2024-03-22T01:21:17;23.38;;;17.40;;
46439;SDS011;32138;50.966;6.968;2024-03-22T01:22:48;22.27;;;17.85;;
46439;SDS011;32138;50.966;6.968;2024-03-22T01:24:19;25.20;;;17.60;;
46439;SDS011;32138;50.966;6.968;2024-03-22T01:25:50;22.20;;;17.48;;
46439;SDS011;32138;50.966;6.968;2024-03-22T01:27:20;28.70;;;18.77;;
46439;SDS011;32138;50.966;6.968;2024-03-22T01:28:51;26.70;;;17.40;;
46439;SDS011;32138;50.966;6.968;2024-03-22T01:30:22;22.67;;;17.40;;
46439;SDS011;32138;50.966;6.968;2024-03-22T01:31:53;22.42;;;18.15;;
46439;SDS011;32138;50.966;6.968;2024-03-22T01:33:24;20.60;;;17.20;;
46439;SDS011;32138;50.966;6.968;2024-03-22T01:34:55;23.63;;;18.20;;
46439;SDS011;32138;50.966;6.968;2024-03-22T01:36:26;23.88;;;17.90;;
46439;SDS011;32138;50.966;6.968;2024-03-22T01:37:56;25.33;;;17.80;;
46439;SDS011;32138;50.966;6.968;2024-03-22T01:39:27;26.42;;;17.48;;
46439;SDS011;32138;50.966;6.968;2024-03-22T01:40:58;22.63;;;17.67;;
46439;SDS011;32138;50.966;6.968;2024-03-22T01:42:28;22.13;;;16.90;;
46439;SDS011;32138;50.966;6.968;2024-03-22T01:43:59;23.15;;;17.88;;
46439;SDS011;32138;50.966;6.968;2024-03-22T01:45:32;22.08;;;17.40;;
46439;SDS011;32138;50.966;6.968;2024-03-22T01:47:03;23.77;;;17.08;;
46439;SDS011;32138;50.966;6.968;2024-03-22T01:48:34;24.45;;;17.25;;
46439;SDS011;32138;50.966;6.968;2024-03-22T01:50:05;20.90;;;16.48;;
46439;SDS011;32138;50.966;6.968;2024-03-22T01:51:38;23.30;;;16.83;;
46439;SDS011;32138;50.966;6.968;2024-03-22T01:53:10;23.83;;;17.02;;
46439;SDS011;32138;50.966;6.968;2024-03-22T01:54:41;24.67;;;16.70;;
46439;SDS011;32138;50.966;6.968;2024-03-22T01:56:12;26.60;;;17.88;;
46439;SDS011;32138;50.966;6.968;2024-03-22T01:57:43;23.23;;;17.23;;
46439;SDS011;32138;50.966;6.968;2024-03-22T01:59:14;20.90;;;15.85;;
46439;SDS011;32138;50.966;6.968;2024-03-22T02:00:45;21.10;;;16.42;;
46439;SDS011;32138;50.966;6.968;2024-03-22T02:02:16;23.48;;;17.38;;
46439;SDS011;32138;50.966;6.968;2024-03-22T02:03:47;20.65;;;16.95;;
46439;SDS011;32138;50.966;6.968;2024-03-22T02:05:18;22.27;;;16.30;;
46439;SDS011;32138;50.966;6.968;2024-03-22T02:06:50;21.80;;;16.55;;
46439;SDS011;32138;50.966;6.968;2024-03-22T02:08:21;25.45;;;17.40;;
46439;SDS011;32138;50.966;6.968;2024-03-22T02:09:51;26.80;;;17.70;;
46439;SDS011;32138;50.966;6.968;2024-03-22T02:11:22;23.55;;;16.92;;
46439;SDS011;32138;50.966;6.968;2024-03-22T02:12:54;22.50;;;17.05;;
46439;SDS011;32138;50.966;6.968;2024-03-22T02:14:25;23.13;;;16.10;;
46439;SDS011;32138;50.966;6.968;2024-03-22T02:15:55;21.60;;;16.65;;
46439;SDS011;32138;50.966;6.968;2024-03-22T02:17:27;23.30;;;16.65;;
46439;SDS011;32138;50.966;6.968;2024-03-22T02:18:58;22.75;;;16.00;;
46439;SDS011;32138;50.966;6.968;2024-03-22T02:20:28;22.40;;;16.02;;
46439;SDS011;32138;50.966;6.968;2024-03-22T02:21:59;21.92;;;16.90;;
46439;SDS011;32138;50.966;6.968;2024-03-22T02:23:34;19.85;;;15.40;;
46439;SDS011;32138;50.966;6.968;2024-03-22T02:25:06;21.33;;;17.30;;
46439;SDS011;32138;50.966;6.968;2024-03-22T02:26:38;18.77;;;15.20;;
46439;SDS011;32138;50.966;6.968;2024-03-22T02:28:08;25.02;;;17.40;;
46439;SDS011;32138;50.966;6.968;2024-03-22T02:29:39;24.35;;;16.85;;
46439;SDS011;32138;50.966;6.968;2024-03-22T02:31:10;20.65;;;16.15;;
46439;SDS011;32138;50.966;6.968;2024-03-22T02:32:41;24.20;;;16.67;;
46439;SDS011;32138;50.966;6.968;2024-03-22T02:34:11;20.50;;;15.15;;
46439;SDS011;32138;50.966;6.968;2024-03-22T02:35:42;23.38;;;16.55;;
46439;SDS011;32138;50.966;6.968;2024-03-22T02:37:13;23.65;;;16.83;;
46439;SDS011;32138;50.966;6.968;2024-03-22T02:38:44;24.15;;;15.65;;
46439;SDS011;32138;50.966;6.968;2024-03-22T02:40:15;20.60;;;16.05;;
46439;SDS011;32138;50.966;6.968;2024-03-22T02:41:46;22.95;;;16.00;;
46439;SDS011;32138;50.966;6.968;2024-03-22T02:43:16;20.08;;;15.80;;
46439;SDS011;32138;50.966;6.968;2024-03-22T02:44:48;20.33;;;16.38;;
46439;SDS011;32138;50.966;6.968;2024-03-22T02:46:19;19.35;;;16.33;;
46439;SDS011;32138;50.966;6.968;2024-03-22T02:47:50;22.52;;;16.50;;
46439;SDS011;32138;50.966;6.968;2024-03-22T02:49:21;22.02;;;15.35;;
46439;SDS011;32138;50.966;6.968;2024-03-22T02:50:54;19.33;;;15.25;;
46439;SDS011;32138;50.966;6.968;2024-03-22T02:52:26;20.70;;;15.13;;
46439;SDS011;32138;50.966;6.968;2024-03-22T02:53:57;24.38;;;15.68;;
46439;SDS011;32138;50.966;6.968;2024-03-22T02:55:28;19.35;;;15.48;;
46439;SDS011;32138;50.966;6.968;2024-03-22T02:56:58;24.95;;;15.38;;
46439;SDS011;32138;50.966;6.968;2024-03-22T02:58:29;23.25;;;16.08;;
46439;SDS011;32138;50.966;6.968;2024-03-22T03:00:00;19.17;;;15.02;;
46439;SDS011;32138;50.966;6.968;2024-03-22T03:01:31;18.90;;;15.35;;
46439;SDS011;32138;50.966;6.968;2024-03-22T03:03:02;23.55;;;15.65;;
46439;SDS011;32138;50.966;6.968;2024-03-22T03:04:33;21.20;;;15.18;;
46439;SDS011;32138;50.966;6.968;2024-03-22T03:06:03;20.15;;;15.57;;
46439;SDS011;32138;50.966;6.968;2024-03-22T03:07:34;24.35;;;15.95;;
46439;SDS011;32138;50.966;6.968;2024-03-22T03:09:05;23.52;;;15.85;;
46439;SDS011;32138;50.966;6.968;2024-03-22T03:10:41;15.55;;;13.32;;
46439;SDS011;32138;50.966;6.968;2024-03-22T03:12:15;19.30;;;14.88;;
46439;SDS011;32138;50.966;6.968;2024-03-22T03:13:46;21.77;;;14.52;;
46439;SDS011;32138;50.966;6.968;2024-03-22T03:15:17;23.58;;;16.02;;
46439;SDS011;32138;50.966;6.968;2024-03-22T03:16:47;23.58;;;16.58;;
46439;SDS011;32138;50.966;6.968;2024-03-22T03:18:18;19.35;;;14.23;;
46439;SDS011;32138;50.966;6.968;2024-03-22T03:19:49;18.20;;;13.20;;
46439;SDS011;32138;50.966;6.968;2024-03-22T03:21:20;21.92;;;14.98;;
46439;SDS011;32138;50.966;6.968;2024-03-22T03:22:50;21.75;;;15.05;;
46439;SDS011;32138;50.966;6.968;2024-03-22T03:24:21;18.65;;;13.80;;
46439;SDS011;32138;50.966;6.968;2024-03-22T03:25:52;18.00;;;14.20;;
46439;SDS011;32138;50.966;6.968;2024-03-22T03:27:23;22.38;;;14.93;;
46439;SDS011;32138;50.966;6.968;2024-03-22T03:28:53;23.00;;;15.45;;
46439;SDS011;32138;50.966;6.968;2024-03-22T03:30:25;21.08;;;14.50;;
46439;SDS011;32138;50.966;6.968;2024-03-22T03:31:56;19.65;;;15.07;;
46439;SDS011;32138;50.966;6.968;2024-03-22T03:33:26;20.40;;;15.10;;
46439;SDS011;32138;50.966;6.968;2024-03-22T03:34:57;19.10;;;15.30;;
46439;SDS011;32138;50.966;6.968;2024-03-22T03:36:28;19.10;;;14.05;;
46439;SDS011;32138;50.966;6.968;2024-03-22T03:37:59;21.98;;;14.38;;
46439;SDS011;32138;50.966;6.968;2024-03-22T03:39:29;20.00;;;14.77;;
46439;SDS011;32138;50.966;6.968;2024-03-22T03:41:00;20.75;;;14.20;;
46439;SDS011;32138;50.966;6.968;2024-03-22T03:42:31;19.77;;;14.65;;
46439;SDS011;32138;50.966;6.968;2024-03-22T03:44:01;21.70;;;15.57;;
46439;SDS011;32138;50.966;6.968;2024-03-22T03:45:32;18.73;;;14.43;;
46439;SDS011;32138;50.966;6.968;2024-03-22T03:47:07;20.42;;;14.57;;
46439;SDS011;32138;50.966;6.968;2024-03-22T03:48:38;19.33;;;15.13;;
46439;SDS011;32138;50.966;6.968;2024-03-22T03:50:09;19.88;;;15.25;;
46439;SDS011;32138;50.966;6.968;2024-03-22T03:51:40;21.08;;;15.02;;
46439;SDS011;32138;50.966;6.968;2024-03-22T03:53:10;21.42;;;14.57;;
46439;SDS011;32138;50.966;6.968;2024-03-22T03:54:41;22.15;;;13.77;;
46439;SDS011;32138;50.966;6.968;2024-03-22T03:56:12;20.95;;;15.55;;
46439;SDS011;32138;50.966;6.968;2024-03-22T03:57:42;18.00;;;14.32;;
46439;SDS011;32138;50.966;6.968;2024-03-22T03:59:13;19.73;;;15.23;;
46439;SDS011;32138;50.966;6.968;2024-03-22T04:00:44;21.00;;;13.93;;
46439;SDS011;32138;50.966;6.968;2024-03-22T04:02:15;17.98;;;14.13;;
46439;SDS011;32138;50.966;6.968;2024-03-22T04:03:45;20.15;;;14.50;;
46439;SDS011;32138;50.966;6.968;2024-03-22T04:05:16;22.08;;;15.02;;
46439;SDS011;32138;50.966;6.968;2024-03-22T04:06:47;19.60;;;12.98;;
46439;SDS011;32138;50.966;6.968;2024-03-22T04:08:17;21.00;;;13.88;;
46439;SDS011;32138;50.966;6.968;2024-03-22T04:09:48;17.38;;;13.68;;
46439;SDS011;32138;50.966;6.968;2024-03-22T04:11:19;18.92;;;14.02;;
46439;SDS011;32138;50.966;6.968;2024-03-22T04:12:50;18.08;;;12.95;;
46439;SDS011;32138;50.966;6.968;2024-03-22T04:14:20;21.75;;;13.73;;
46439;SDS011;32138;50.966;6.968;2024-03-22T04:15:51;18.90;;;14.05;;
46439;SDS011;32138;50.966;6.968;2024-03-22T04:17:23;19.55;;;15.35;;
46439;SDS011;32138;50.966;6.968;2024-03-22T04:18:53;21.10;;;15.15;;
46439;SDS011;32138;50.966;6.968;2024-03-22T04:20:24;19.50;;;13.52;;
46439;SDS011;32138;50.966;6.968;2024-03-22T04:21:55;18.02;;;13.52;;
46439;SDS011;32138;50.966;6.968;2024-03-22T04:23:26;19.88;;;14.68;;
46439;SDS011;32138;50.966;6.968;2024-03-22T04:24:56;23.67;;;15.48;;
46439;SDS011;32138;50.966;6.968;2024-03-22T04:26:27;20.05;;;14.45;;
46439;SDS011;32138;50.966;6.968;2024-03-22T04:27:58;23.17;;;14.75;;
46439;SDS011;32138;50.966;6.968;2024-03-22T04:29:29;21.05;;;15.50;;
46439;SDS011;32138;50.966;6.968;2024-03-22T04:31:04;24.48;;;15.05;;
46439;SDS011;32138;50.966;6.968;2024-03-22T04:32:39;20.23;;;14.90;;
46439;SDS011;32138;50.966;6.968;2024-03-22T04:34:10;19.23;;;13.82;;
46439;SDS011;32138;50.966;6.968;2024-03-22T04:35:44;20.73;;;14.68;;
46439;SDS011;32138;50.966;6.968;2024-03-22T04:37:15;22.10;;;14.32;;
46439;SDS011;32138;50.966;6.968;2024-03-22T04:38:46;20.60;;;14.30;;
46439;SDS011;32138;50.966;6.968;2024-03-22T04:40:17;21.40;;;14.60;;
46439;SDS011;32138;50.966;6.968;2024-03-22T04:41:48;20.80;;;14.63;;
46439;SDS011;32138;50.966;6.968;2024-03-22T04:43:19;19.48;;;14.07;;
46439;SDS011;32138;50.966;6.968;2024-03-22T04:44:50;20.30;;;15.82;;
46439;SDS011;32138;50.966;6.968;2024-03-22T04:46:21;19.20;;;14.50;;
46439;SDS011;32138;50.966;6.968;2024-03-22T04:47:51;23.30;;;15.05;;
46439;SDS011;32138;50.966;6.968;2024-03-22T04:49:22;18.55;;;13.20;;
46439;SDS011;32138;50.966;6.968;2024-03-22T04:50:53;19.85;;;14.45;;
46439;SDS011;32138;50.966;6.968;2024-03-22T04:52:24;20.38;;;15.05;;
46439;SDS011;32138;50.966;6.968;2024-03-22T04:53:55;24.45;;;15.38;;
46439;SDS011;32138;50.966;6.968;2024-03-22T04:55:25;20.73;;;15.07;;
46439;SDS011;32138;50.966;6.968;2024-03-22T04:56:56;19.90;;;14.80;;
46439;SDS011;32138;50.966;6.968;2024-03-22T04:58:27;20.23;;;13.68;;
46439;SDS011;32138;50.966;6.968;2024-03-22T04:59:57;18.52;;;14.15;;
46439;SDS011;32138;50.966;6.968;2024-03-22T05:01:28;20.45;;;14.00;;
46439;SDS011;32138;50.966;6.968;2024-03-22T05:02:59;21.92;;;14.32;;
46439;SDS011;32138;50.966;6.968;2024-03-22T05:04:30;16.40;;;13.23;;
46439;SDS011;32138;50.966;6.968;2024-03-22T05:06:00;17.67;;;12.98;;
46439;SDS011;32138;50.966;6.968;2024-03-22T05:07:33;22.05;;;14.20;;
46439;SDS011;32138;50.966;6.968;2024-03-22T05:09:04;20.20;;;13.32;;
46439;SDS011;32138;50.966;6.968;2024-03-22T05:10:35;18.42;;;14.70;;
46439;SDS011;32138;50.966;6.968;2024-03-22T05:12:06;16.08;;;12.60;;
46439;SDS011;32138;50.966;6.968;2024-03-22T05:13:37;17.35;;;13.00;;
46439;SDS011;32138;50.966;6.968;2024-03-22T05:15:10;20.30;;;13.60;;
46439;SDS011;32138;50.966;6.968;2024-03-22T05:16:41;17.70;;;13.63;;
46439;SDS011;32138;50.966;6.968;2024-03-22T05:18:12;17.67;;;12.90;;
46439;SDS011;32138;50.966;6.968;2024-03-22T05:19:43;19.10;;;13.50;;
46439;SDS011;32138;50.966;6.968;2024-03-22T05:21:14;18.08;;;13.48;;
46439;SDS011;32138;50.966;6.968;2024-03-22T05:22:46;17.23;;;12.95;;
46439;SDS011;32138;50.966;6.968;2024-03-22T05:24:18;19.17;;;12.80;;
46439;SDS011;32138;50.966;6.968;2024-03-22T05:25:49;19.92;;;13.68;;
46439;SDS011;32138;50.966;6.968;2024-03-22T05:27:20;18.70;;;13.05;;
46439;SDS011;32138;50.966;6.968;2024-03-22T05:28:51;21.00;;;14.27;;
46439;SDS011;32138;50.966;6.968;2024-03-22T05:30:22;24.98;;;14.15;;
46439;SDS011;32138;50.966;6.968;2024-03-22T05:31:54;19.08;;;13.75;;
46439;SDS011;32138;50.966;6.968;2024-03-22T05:33:27;17.65;;;14.05;;
46439;SDS011;32138;50.966;6.968;2024-03-22T05:34:58;21.10;;;13.52;;
46439;SDS011;32138;50.966;6.968;2024-03-22T05:36:29;17.67;;;13.90;;
46439;SDS011;32138;50.966;6.968;2024-03-22T05:38:00;23.45;;;14.18;;
46439;SDS011;32138;50.966;6.968;2024-03-22T05:39:31;20.15;;;13.88;;
46439;SDS011;32138;50.966;6.968;2024-03-22T05:41:05;20.20;;;14.57;;
46439;SDS011;32138;50.966;6.968;2024-03-22T05:42:36;19.30;;;14.45;;
46439;SDS011;32138;50.966;6.968;2024-03-22T05:44:07;22.88;;;14.68;;
46439;SDS011;32138;50.966;6.968;2024-03-22T05:45:38;19.10;;;14.05;;
46439;SDS011;32138;50.966;6.968;2024-03-22T05:47:09;19.65;;;13.73;;
46439;SDS011;32138;50.966;6.968;2024-03-22T05:48:40;19.98;;;12.68;;
46439;SDS011;32138;50.966;6.968;2024-03-22T05:50:12;19.73;;;14.20;;
46439;SDS011;32138;50.966;6.968;2024-03-22T05:51:44;20.27;;;13.23;;
46439;SDS011;32138;50.966;6.968;2024-03-22T05:53:15;16.80;;;12.50;;
46439;SDS011;32138;50.966;6.968;2024-03-22T05:54:46;19.27;;;14.02;;
46439;SDS011;32138;50.966;6.968;2024-03-22T05:56:18;20.33;;;14.18;;
46439;SDS011;32138;50.966;6.968;2024-03-22T05:57:52;22.02;;;14.02;;
46439;SDS011;32138;50.966;6.968;2024-03-22T05:59:23;18.67;;;13.07;;
46439;SDS011;32138;50.966;6.968;2024-03-22T06:00:54;17.80;;;13.02;;
46439;SDS011;32138;50.966;6.968;2024-03-22T06:02:25;33.25;;;19.33;;
46439;SDS011;32138;50.966;6.968;2024-03-22T06:03:57;27.23;;;14.07;;
46439;SDS011;32138;50.966;6.968;2024-03-22T06:05:28;22.13;;;14.52;;
46439;SDS011;32138;50.966;6.968;2024-03-22T06:06:59;21.52;;;13.20;;
46439;SDS011;32138;50.966;6.968;2024-03-22T06:08:33;19.75;;;13.50;;
46439;SDS011;32138;50.966;6.968;2024-03-22T06:10:09;21.17;;;13.10;;
46439;SDS011;32138;50.966;6.968;2024-03-22T06:11:40;17.70;;;14.13;;
46439;SDS011;32138;50.966;6.968;2024-03-22T06:13:14;19.15;;;13.50;;
46439;SDS011;32138;50.966;6.968;2024-03-22T06:14:45;17.55;;;12.10;;
46439;SDS011;32138;50.966;6.968;2024-03-22T06:16:18;19.52;;;12.98;;
46439;SDS011;32138;50.966;6.968;2024-03-22T06:17:49;21.67;;;13.35;;
46439;SDS011;32138;50.966;6.968;2024-03-22T06:19:21;17.52;;;13.32;;
46439;SDS011;32138;50.966;6.968;2024-03-22T06:20:53;20.42;;;13.57;;
46439;SDS011;32138;50.966;6.968;2024-03-22T06:22:25;21.80;;;13.25;;
46439;SDS011;32138;50.966;6.968;2024-03-22T06:23:56;19.77;;;13.65;;
46439;SDS011;32138;50.966;6.968;2024-03-22T06:25:27;16.48;;;12.13;;
46439;SDS011;32138;50.966;6.968;2024-03-22T06:26:59;19.65;;;13.32;;
46439;SDS011;32138;50.966;6.968;2024-03-22T06:28:30;18.92;;;13.77;;
46439;SDS011;32138;50.966;6.968;2024-03-22T06:30:01;22.35;;;13.55;;
46439;SDS011;32138;50.966;6.968;2024-03-22T06:31:33;21.85;;;14.18;;
46439;SDS011;32138;50.966;6.968;2024-03-22T06:33:04;23.95;;;14.60;;
46439;SDS011;32138;50.966;6.968;2024-03-22T06:34:36;16.50;;;13.23;;
46439;SDS011;32138;50.966;6.968;2024-03-22T06:36:07;20.17;;;13.15;;
46439;SDS011;32138;50.966;6.968;2024-03-22T06:37:39;20.95;;;13.43;;
46439;SDS011;32138;50.966;6.968;2024-03-22T06:39:11;18.65;;;12.82;;
46439;SDS011;32138;50.966;6.968;2024-03-22T06:40:42;18.92;;;13.23;;
46439;SDS011;32138;50.966;6.968;2024-03-22T06:42:14;20.58;;;12.25;;
46439;SDS011;32138;50.966;6.968;2024-03-22T06:43:45;19.23;;;13.98;;
46439;SDS011;32138;50.966;6.968;2024-03-22T06:45:17;21.00;;;13.80;;
46439;SDS011;32138;50.966;6.968;2024-03-22T06:46:48;19.90;;;13.13;;
46439;SDS011;32138;50.966;6.968;2024-03-22T06:48:20;19.75;;;14.15;;
46439;SDS011;32138;50.966;6.968;2024-03-22T06:49:51;18.70;;;13.25;;
46439;SDS011;32138;50.966;6.968;2024-03-22T06:51:23;19.70;;;13.75;;
46439;SDS011;32138;50.966;6.968;2024-03-22T06:52:54;20.80;;;14.30;;
46439;SDS011;32138;50.966;6.968;2024-03-22T06:54:25;19.00;;;14.52;;
46439;SDS011;32138;50.966;6.968;2024-03-22T06:55:56;21.50;;;15.68;;
46439;SDS011;32138;50.966;6.968;2024-03-22T06:57:27;15.93;;;13.13;;
46439;SDS011;32138;50.966;6.968;2024-03-22T06:58:59;18.90;;;13.77;;
46439;SDS011;32138;50.966;6.968;2024-03-22T07:00:30;19.42;;;14.38;;
46439;SDS011;32138;50.966;6.968;2024-03-22T07:02:01;19.30;;;15.60;;
46439;SDS011;32138;50.966;6.968;2024-03-22T07:03:31;18.95;;;13.68;;
46439;SDS011;32138;50.966;6.968;2024-03-22T07:05:03;19.80;;;13.23;;
46439;SDS011;32138;50.966;6.968;2024-03-22T07:06:34;18.48;;;13.05;;
46439;SDS011;32138;50.966;6.968;2024-03-22T07:08:05;18.02;;;13.82;;
46439;SDS011;32138;50.966;6.968;2024-03-22T07:09:36;22.20;;;13.93;;
46439;SDS011;32138;50.966;6.968;2024-03-22T07:11:07;21.92;;;13.25;;
46439;SDS011;32138;50.966;6.968;2024-03-22T07:12:38;19.20;;;13.80;;
46439;SDS011;32138;50.966;6.968;2024-03-22T07:14:09;19.10;;;13.45;;
46439;SDS011;32138;50.966;6.968;2024-03-22T07:15:40;17.45;;;14.05;;
46439;SDS011;32138;50.966;6.968;2024-03-22T07:17:10;16.70;;;12.90;;
46439;SDS011;32138;50.966;6.968;2024-03-22T07:18:41;20.95;;;13.43;;
46439;SDS011;32138;50.966;6.968;2024-03-22T07:20:12;18.63;;;13.13;;
46439;SDS011;32138;50.966;6.968;2024-03-22T07:21:43;25.05;;;13.30;;
46439;SDS011;32138;50.966;6.968;2024-03-22T07:23:13;18.23;;;14.15;;
46439;SDS011;32138;50.966;6.968;2024-03-22T07:24:44;19.85;;;13.93;;
46439;SDS011;32138;50.966;6.968;2024-03-22T07:26:16;19.60;;;13.75;;
46439;SDS011;32138;50.966;6.968;2024-03-22T07:27:46;19.58;;;14.13;;
46439;SDS011;32138;50.966;6.968;2024-03-22T07:29:19;20.83;;;13.32;;
46439;SDS011;32138;50.966;6.968;2024-03-22T07:30:51;21.05;;;14.65;;
46439;SDS011;32138;50.966;6.968;2024-03-22T07:32:23;22.90;;;14.07;;
46439;SDS011;32138;50.966;6.968;2024-03-22T07:33:55;18.88;;;14.25;;
46439;SDS011;32138;50.966;6.968;2024-03-22T07:35:26;20.98;;;15.13;;
46439;SDS011;32138;50.966;6.968;2024-03-22T07:36:57;20.17;;;14.70;;
46439;SDS011;32138;50.966;6.968;2024-03-22T07:38:28;20.77;;;13.82;;
46439;SDS011;32138;50.966;6.968;2024-03-22T07:39:59;21.50;;;14.95;;
46439;SDS011;32138;50.966;6.968;2024-03-22T07:41:32;18.83;;;14.00;;
46439;SDS011;32138;50.966;6.968;2024-03-22T07:43:04;25.17;;;15.65;;
46439;SDS011;32138;50.966;6.968;2024-03-22T07:44:38;22.38;;;15.23;;
46439;SDS011;32138;50.966;6.968;2024-03-22T07:46:09;21.23;;;15.38;;
46439;SDS011;32138;50.966;6.968;2024-03-22T07:47:40;22.90;;;15.70;;
46439;SDS011;32138;50.966;6.968;2024-03-22T07:49:12;23.13;;;14.77;;
46439;SDS011;32138;50.966;6.968;2024-03-22T07:50:43;21.35;;;15.00;;
46439;SDS011;32138;50.966;6.968;2024-03-22T07:52:14;19.25;;;14.85;;
46439;SDS011;32138;50.966;6.968;2024-03-22T07:53:45;23.45;;;15.88;;
46439;SDS011;32138;50.966;6.968;2024-03-22T07:55:15;25.75;;;16.27;;
46439;SDS011;32138;50.966;6.968;2024-03-22T07:56:46;22.05;;;15.82;;
46439;SDS011;32138;50.966;6.968;2024-03-22T07:58:17;22.48;;;14.80;;
46439;SDS011;32138;50.966;6.968;2024-03-22T07:59:48;24.20;;;16.20;;
46439;SDS011;32138;50.966;6.968;2024-03-22T08:01:19;27.20;;;15.57;;
46439;SDS011;32138;50.966;6.968;2024-03-22T08:02:49;31.10;;;16.83;;
46439;SDS011;32138;50.966;6.968;2024-03-22T08:04:21;26.50;;;16.27;;
46439;SDS011;32138;50.966;6.968;2024-03-22T08:05:51;22.95;;;16.05;;
46439;SDS011;32138;50.966;6.968;2024-03-22T08:07:22;19.40;;;16.17;;
46439;SDS011;32138;50.966;6.968;2024-03-22T08:08:53;20.10;;;16.60;;
46439;SDS011;32138;50.966;6.968;2024-03-22T08:10:24;22.10;;;15.48;;
46439;SDS011;32138;50.966;6.968;2024-03-22T08:11:54;24.63;;;16.02;;
46439;SDS011;32138;50.966;6.968;2024-03-22T08:13:25;25.20;;;17.27;;
46439;SDS011;32138;50.966;6.968;2024-03-22T08:14:56;25.33;;;16.02;;
46439;SDS011;32138;50.966;6.968;2024-03-22T08:16:26;25.13;;;17.35;;
46439;SDS011;32138;50.966;6.968;2024-03-22T08:17:58;24.40;;;16.55;;
46439;SDS011;32138;50.966;6.968;2024-03-22T08:19:29;26.15;;;16.67;;
46439;SDS011;32138;50.966;6.968;2024-03-22T08:21:01;27.30;;;17.63;;
46439;SDS011;32138;50.966;6.968;2024-03-22T08:22:32;23.58;;;16.10;;
46439;SDS011;32138;50.966;6.968;2024-03-22T08:24:03;24.90;;;17.10;;
46439;SDS011;32138;50.966;6.968;2024-03-22T08:25:34;22.05;;;16.40;;
46439;SDS011;32138;50.966;6.968;2024-03-22T08:27:06;26.63;;;16.60;;
46439;SDS011;32138;50.966;6.968;2024-03-22T08:28:37;22.23;;;15.85;;
46439;SDS011;32138;50.966;6.968;2024-03-22T08:30:08;18.77;;;14.93;;
46439;SDS011;32138;50.966;6.968;2024-03-22T08:31:40;22.88;;;16.95;;
46439;SDS011;32138;50.966;6.968;2024-03-22T08:33:11;22.73;;;16.48;;
46439;SDS011;32138;50.966;6.968;2024-03-22T08:34:42;22.38;;;15.07;;
46439;SDS011;32138;50.966;6.968;2024-03-22T08:36:13;21.95;;;16.23;;
46439;SDS011;32138;50.966;6.968;2024-03-22T08:37:44;21.42;;;16.42;;
46439;SDS011;32138;50.966;6.968;2024-03-22T08:39:15;27.70;;;15.90;;
46439;SDS011;32138;50.966;6.968;2024-03-22T08:40:46;18.80;;;13.68;;
46439;SDS011;32138;50.966;6.968;2024-03-22T08:42:16;23.63;;;15.40;;
46439;SDS011;32138;50.966;6.968;2024-03-22T08:43:47;19.13;;;15.85;;
46439;SDS011;32138;50.966;6.968;2024-03-22T08:45:18;19.75;;;14.75;;
46439;SDS011;32138;50.966;6.968;2024-03-22T08:46:49;20.10;;;14.27;;
46439;SDS011;32138;50.966;6.968;2024-03-22T08:48:20;18.30;;;14.18;;
46439;SDS011;32138;50.966;6.968;2024-03-22T08:49:51;21.52;;;14.65;;
46439;SDS011;32138;50.966;6.968;2024-03-22T08:51:22;21.25;;;13.90;;
46439;SDS011;32138;50.966;6.968;2024-03-22T08:52:53;18.35;;;14.57;;